<?xml version="1.0" encoding="UTF-8" standalone="no" ?>
<gpx xmlns="http://www.topografix.com/GPX/1/1" xmlns:xsi="http://www.w3.org/2001/XMLSchema-instance" xsi:schemaLocation="http://www.topografix.com/GPX/1/1 http://www.topografix.com/GPX/1/1/gpx.xsd" version="1.1" creator="VisuGPX - https://www.visugpx.com">
  <metadata>
    <name>rando cartelegue 9.6 km</name>
    <desc><![CDATA[[url]https://rando-pedestre-33.over-blog.com/2023/05/rando-cartelegue-10.2-km.html
[/url]]]></desc>
  </metadata>
  <trk>
    <name><![CDATA[rando cartelegue 9.6 km]]></name>
    <trkseg>
      <trkpt lat="45.18594" lon="-0.58074">
        <ele>25</ele>
        <time>2023-01-09T07:06:27Z</time>
      </trkpt>
      <trkpt lat="45.18591" lon="-0.58048">
        <ele>25</ele>
        <time>2023-01-09T07:06:42Z</time>
      </trkpt>
      <trkpt lat="45.18606" lon="-0.58037">
        <ele>24</ele>
        <time>2023-01-09T07:06:55Z</time>
      </trkpt>
      <trkpt lat="45.18607" lon="-0.58019">
        <ele>25</ele>
        <time>2023-01-09T07:07:06Z</time>
      </trkpt>
      <trkpt lat="45.186" lon="-0.57983">
        <ele>25</ele>
        <time>2023-01-09T07:07:27Z</time>
      </trkpt>
      <trkpt lat="45.18602" lon="-0.57954">
        <ele>25</ele>
        <time>2023-01-09T07:07:43Z</time>
      </trkpt>
      <trkpt lat="45.18598" lon="-0.57889">
        <ele>25</ele>
        <time>2023-01-09T07:08:20Z</time>
      </trkpt>
      <trkpt lat="45.1872" lon="-0.57873">
        <ele>25</ele>
        <time>2023-01-09T07:09:58Z</time>
      </trkpt>
      <trkpt lat="45.18766" lon="-0.57874">
        <ele>25</ele>
        <time>2023-01-09T07:10:35Z</time>
      </trkpt>
      <trkpt lat="45.18808" lon="-0.57902">
        <ele>26</ele>
        <time>2023-01-09T07:11:12Z</time>
      </trkpt>
      <trkpt lat="45.18832" lon="-0.57912">
        <ele>26</ele>
        <time>2023-01-09T07:11:32Z</time>
      </trkpt>
      <trkpt lat="45.18904" lon="-0.57905">
        <ele>28</ele>
        <time>2023-01-09T07:12:30Z</time>
      </trkpt>
      <trkpt lat="45.18953" lon="-0.57935">
        <ele>28</ele>
        <time>2023-01-09T07:13:13Z</time>
      </trkpt>
      <trkpt lat="45.18969" lon="-0.57929">
        <ele>28</ele>
        <time>2023-01-09T07:13:26Z</time>
      </trkpt>
      <trkpt lat="45.18983" lon="-0.57914">
        <ele>28</ele>
        <time>2023-01-09T07:13:40Z</time>
      </trkpt>
      <trkpt lat="45.19009" lon="-0.57875">
        <ele>28</ele>
        <time>2023-01-09T07:14:10Z</time>
      </trkpt>
      <trkpt lat="45.1905" lon="-0.57825">
        <ele>28</ele>
        <time>2023-01-09T07:14:53Z</time>
      </trkpt>
      <trkpt lat="45.19086" lon="-0.57753">
        <ele>27</ele>
        <time>2023-01-09T07:15:43Z</time>
      </trkpt>
      <trkpt lat="45.19108" lon="-0.57716">
        <ele>26</ele>
        <time>2023-01-09T07:16:11Z</time>
      </trkpt>
      <trkpt lat="45.19121" lon="-0.57695">
        <ele>26</ele>
        <time>2023-01-09T07:16:26Z</time>
      </trkpt>
      <trkpt lat="45.19138" lon="-0.57682">
        <ele>25</ele>
        <time>2023-01-09T07:16:42Z</time>
      </trkpt>
      <trkpt lat="45.191" lon="-0.57572">
        <ele>28</ele>
        <time>2023-01-09T07:17:51Z</time>
      </trkpt>
      <trkpt lat="45.19098" lon="-0.57559">
        <ele>28</ele>
        <time>2023-01-09T07:17:58Z</time>
      </trkpt>
      <trkpt lat="45.19103" lon="-0.57539">
        <ele>29</ele>
        <time>2023-01-09T07:18:10Z</time>
      </trkpt>
      <trkpt lat="45.19107" lon="-0.5752">
        <ele>29</ele>
        <time>2023-01-09T07:18:22Z</time>
      </trkpt>
      <trkpt lat="45.19081" lon="-0.57426">
        <ele>31</ele>
        <time>2023-01-09T07:19:19Z</time>
      </trkpt>
      <trkpt lat="45.19079" lon="-0.57411">
        <ele>31</ele>
        <time>2023-01-09T07:19:27Z</time>
      </trkpt>
      <trkpt lat="45.19084" lon="-0.57391">
        <ele>31</ele>
        <time>2023-01-09T07:19:39Z</time>
      </trkpt>
      <trkpt lat="45.19104" lon="-0.57329">
        <ele>32</ele>
        <time>2023-01-09T07:20:18Z</time>
      </trkpt>
      <trkpt lat="45.19107" lon="-0.57307">
        <ele>32</ele>
        <time>2023-01-09T07:20:30Z</time>
      </trkpt>
      <trkpt lat="45.19113" lon="-0.57284">
        <ele>33</ele>
        <time>2023-01-09T07:20:44Z</time>
      </trkpt>
      <trkpt lat="45.19123" lon="-0.57271">
        <ele>33</ele>
        <time>2023-01-09T07:20:55Z</time>
      </trkpt>
      <trkpt lat="45.19182" lon="-0.57234">
        <ele>35</ele>
        <time>2023-01-09T07:21:47Z</time>
      </trkpt>
      <trkpt lat="45.19215" lon="-0.57207">
        <ele>34</ele>
        <time>2023-01-09T07:22:17Z</time>
      </trkpt>
      <trkpt lat="45.19256" lon="-0.57165">
        <ele>33</ele>
        <time>2023-01-09T07:22:58Z</time>
      </trkpt>
      <trkpt lat="45.19406" lon="-0.57059">
        <ele>32</ele>
        <time>2023-01-09T07:25:12Z</time>
      </trkpt>
      <trkpt lat="45.19451" lon="-0.57036">
        <ele>31</ele>
        <time>2023-01-09T07:25:50Z</time>
      </trkpt>
      <trkpt lat="45.19473" lon="-0.57014">
        <ele>31</ele>
        <time>2023-01-09T07:26:12Z</time>
      </trkpt>
      <trkpt lat="45.195" lon="-0.56976">
        <ele>32</ele>
        <time>2023-01-09T07:26:42Z</time>
      </trkpt>
      <trkpt lat="45.19524" lon="-0.56951">
        <ele>32</ele>
        <time>2023-01-09T07:27:06Z</time>
      </trkpt>
      <trkpt lat="45.19547" lon="-0.56946">
        <ele>32</ele>
        <time>2023-01-09T07:27:25Z</time>
      </trkpt>
      <trkpt lat="45.19616" lon="-0.56939">
        <ele>32</ele>
        <time>2023-01-09T07:28:20Z</time>
      </trkpt>
      <trkpt lat="45.19857" lon="-0.56791">
        <ele>36</ele>
        <time>2023-01-09T07:31:50Z</time>
      </trkpt>
      <trkpt lat="45.19879" lon="-0.56775">
        <ele>36</ele>
        <time>2023-01-09T07:32:10Z</time>
      </trkpt>
      <trkpt lat="45.19744" lon="-0.56363">
        <ele>36</ele>
        <time>2023-01-09T07:36:26Z</time>
      </trkpt>
      <trkpt lat="45.19951" lon="-0.56237">
        <ele>32</ele>
        <time>2023-01-09T07:39:27Z</time>
      </trkpt>
      <trkpt lat="45.20092" lon="-0.56156">
        <ele>31</ele>
        <time>2023-01-09T07:41:28Z</time>
      </trkpt>
      <trkpt lat="45.20237" lon="-0.56066">
        <ele>29</ele>
        <time>2023-01-09T07:43:35Z</time>
      </trkpt>
      <trkpt lat="45.20381" lon="-0.5598">
        <ele>26</ele>
        <time>2023-01-09T07:45:40Z</time>
      </trkpt>
      <trkpt lat="45.20489" lon="-0.55913">
        <ele>24</ele>
        <time>2023-01-09T07:47:15Z</time>
      </trkpt>
      <trkpt lat="45.20562" lon="-0.55871">
        <ele>24</ele>
        <time>2023-01-09T07:48:18Z</time>
      </trkpt>
      <trkpt lat="45.20592" lon="-0.5585">
        <ele>24</ele>
        <time>2023-01-09T07:48:45Z</time>
      </trkpt>
      <trkpt lat="45.20684" lon="-0.55768">
        <ele>24</ele>
        <time>2023-01-09T07:50:11Z</time>
      </trkpt>
      <trkpt lat="45.20724" lon="-0.55735">
        <ele>22</ele>
        <time>2023-01-09T07:50:49Z</time>
      </trkpt>
      <trkpt lat="45.20791" lon="-0.55692">
        <ele>21</ele>
        <time>2023-01-09T07:51:47Z</time>
      </trkpt>
      <trkpt lat="45.21013" lon="-0.55587">
        <ele>20</ele>
        <time>2023-01-09T07:54:55Z</time>
      </trkpt>
      <trkpt lat="45.2113" lon="-0.55455">
        <ele>17</ele>
        <time>2023-01-09T07:56:54Z</time>
      </trkpt>
      <trkpt lat="45.2104" lon="-0.55187">
        <ele>20</ele>
        <time>2023-01-09T07:59:42Z</time>
      </trkpt>
      <trkpt lat="45.20923" lon="-0.54983">
        <ele>18</ele>
        <time>2023-01-09T08:02:10Z</time>
      </trkpt>
      <trkpt lat="45.20885" lon="-0.54883">
        <ele>19</ele>
        <time>2023-01-09T08:03:14Z</time>
      </trkpt>
      <trkpt lat="45.20736" lon="-0.54641">
        <ele>19</ele>
        <time>2023-01-09T08:06:16Z</time>
      </trkpt>
      <trkpt lat="45.20242" lon="-0.55228">
        <ele>25</ele>
        <time>2023-01-09T08:14:52Z</time>
      </trkpt>
      <trkpt lat="45.20193" lon="-0.55294">
        <ele>25</ele>
        <time>2023-01-09T08:15:46Z</time>
      </trkpt>
      <trkpt lat="45.19934" lon="-0.55472">
        <ele>29</ele>
        <time>2023-01-09T08:19:36Z</time>
      </trkpt>
      <trkpt lat="45.19544" lon="-0.55748">
        <ele>36</ele>
        <time>2023-01-09T08:25:25Z</time>
      </trkpt>
      <trkpt lat="45.19454" lon="-0.55802">
        <ele>39</ele>
        <time>2023-01-09T08:26:43Z</time>
      </trkpt>
      <trkpt lat="45.19334" lon="-0.55891">
        <ele>39</ele>
        <time>2023-01-09T08:28:32Z</time>
      </trkpt>
      <trkpt lat="45.19267" lon="-0.55906">
        <ele>40</ele>
        <time>2023-01-09T08:29:26Z</time>
      </trkpt>
      <trkpt lat="45.19213" lon="-0.55945">
        <ele>41</ele>
        <time>2023-01-09T08:30:14Z</time>
      </trkpt>
      <trkpt lat="45.19179" lon="-0.55978">
        <ele>42</ele>
        <time>2023-01-09T08:30:47Z</time>
      </trkpt>
      <trkpt lat="45.19078" lon="-0.56044">
        <ele>43</ele>
        <time>2023-01-09T08:32:16Z</time>
      </trkpt>
      <trkpt lat="45.1907" lon="-0.56048">
        <ele>43</ele>
        <time>2023-01-09T08:32:23Z</time>
      </trkpt>
      <trkpt lat="45.19075" lon="-0.56078">
        <ele>43</ele>
        <time>2023-01-09T08:32:41Z</time>
      </trkpt>
      <trkpt lat="45.19006" lon="-0.56056">
        <ele>44</ele>
        <time>2023-01-09T08:33:37Z</time>
      </trkpt>
      <trkpt lat="45.18945" lon="-0.56043">
        <ele>43</ele>
        <time>2023-01-09T08:34:27Z</time>
      </trkpt>
      <trkpt lat="45.18897" lon="-0.56023">
        <ele>42</ele>
        <time>2023-01-09T08:35:07Z</time>
      </trkpt>
      <trkpt lat="45.18865" lon="-0.55994">
        <ele>41</ele>
        <time>2023-01-09T08:35:37Z</time>
      </trkpt>
      <trkpt lat="45.18846" lon="-0.5599">
        <ele>41</ele>
        <time>2023-01-09T08:35:52Z</time>
      </trkpt>
      <trkpt lat="45.18803" lon="-0.56015">
        <ele>40</ele>
        <time>2023-01-09T08:36:30Z</time>
      </trkpt>
      <trkpt lat="45.18748" lon="-0.56031">
        <ele>41</ele>
        <time>2023-01-09T08:37:15Z</time>
      </trkpt>
      <trkpt lat="45.18724" lon="-0.56032">
        <ele>42</ele>
        <time>2023-01-09T08:37:34Z</time>
      </trkpt>
      <trkpt lat="45.18685" lon="-0.56047">
        <ele>42</ele>
        <time>2023-01-09T08:38:06Z</time>
      </trkpt>
      <trkpt lat="45.18656" lon="-0.56049">
        <ele>42</ele>
        <time>2023-01-09T08:38:29Z</time>
      </trkpt>
      <trkpt lat="45.18628" lon="-0.56046">
        <ele>42</ele>
        <time>2023-01-09T08:38:52Z</time>
      </trkpt>
      <trkpt lat="45.18642" lon="-0.56114">
        <ele>42</ele>
        <time>2023-01-09T08:39:32Z</time>
      </trkpt>
      <trkpt lat="45.18639" lon="-0.56177">
        <ele>41</ele>
        <time>2023-01-09T08:40:08Z</time>
      </trkpt>
      <trkpt lat="45.18645" lon="-0.56296">
        <ele>40</ele>
        <time>2023-01-09T08:41:15Z</time>
      </trkpt>
      <trkpt lat="45.18643" lon="-0.56333">
        <ele>40</ele>
        <time>2023-01-09T08:41:36Z</time>
      </trkpt>
      <trkpt lat="45.18621" lon="-0.56401">
        <ele>41</ele>
        <time>2023-01-09T08:42:18Z</time>
      </trkpt>
      <trkpt lat="45.18631" lon="-0.56545">
        <ele>38</ele>
        <time>2023-01-09T08:43:40Z</time>
      </trkpt>
      <trkpt lat="45.18632" lon="-0.56674">
        <ele>37</ele>
        <time>2023-01-09T08:44:53Z</time>
      </trkpt>
      <trkpt lat="45.18628" lon="-0.56754">
        <ele>36</ele>
        <time>2023-01-09T08:45:38Z</time>
      </trkpt>
      <trkpt lat="45.18617" lon="-0.56777">
        <ele>36</ele>
        <time>2023-01-09T08:45:53Z</time>
      </trkpt>
      <trkpt lat="45.18565" lon="-0.5682">
        <ele>36</ele>
        <time>2023-01-09T08:46:42Z</time>
      </trkpt>
      <trkpt lat="45.18526" lon="-0.568">
        <ele>36</ele>
        <time>2023-01-09T08:47:15Z</time>
      </trkpt>
      <trkpt lat="45.18487" lon="-0.56795">
        <ele>36</ele>
        <time>2023-01-09T08:47:46Z</time>
      </trkpt>
      <trkpt lat="45.18448" lon="-0.56799">
        <ele>36</ele>
        <time>2023-01-09T08:48:18Z</time>
      </trkpt>
      <trkpt lat="45.18461" lon="-0.5692">
        <ele>36</ele>
        <time>2023-01-09T08:49:27Z</time>
      </trkpt>
      <trkpt lat="45.1845" lon="-0.57008">
        <ele>36</ele>
        <time>2023-01-09T08:50:17Z</time>
      </trkpt>
      <trkpt lat="45.18448" lon="-0.57051">
        <ele>35</ele>
        <time>2023-01-09T08:50:41Z</time>
      </trkpt>
      <trkpt lat="45.18453" lon="-0.5748">
        <ele>25</ele>
        <time>2023-01-09T08:54:43Z</time>
      </trkpt>
      <trkpt lat="45.18464" lon="-0.57527">
        <ele>24</ele>
        <time>2023-01-09T08:55:11Z</time>
      </trkpt>
      <trkpt lat="45.18419" lon="-0.57671">
        <ele>23</ele>
        <time>2023-01-09T08:56:40Z</time>
      </trkpt>
      <trkpt lat="45.18419" lon="-0.57703">
        <ele>23</ele>
        <time>2023-01-09T08:56:58Z</time>
      </trkpt>
      <trkpt lat="45.18458" lon="-0.57817">
        <ele>23</ele>
        <time>2023-01-09T08:58:10Z</time>
      </trkpt>
      <trkpt lat="45.18492" lon="-0.57918">
        <ele>25</ele>
        <time>2023-01-09T08:59:13Z</time>
      </trkpt>
      <trkpt lat="45.18503" lon="-0.57963">
        <ele>24</ele>
        <time>2023-01-09T08:59:40Z</time>
      </trkpt>
      <trkpt lat="45.18519" lon="-0.58005">
        <ele>24</ele>
        <time>2023-01-09T09:00:07Z</time>
      </trkpt>
      <trkpt lat="45.18522" lon="-0.5803">
        <ele>24</ele>
        <time>2023-01-09T09:00:21Z</time>
      </trkpt>
      <trkpt lat="45.18523" lon="-0.58073">
        <ele>24</ele>
        <time>2023-01-09T09:00:45Z</time>
      </trkpt>
      <trkpt lat="45.18541" lon="-0.5807">
        <ele>24</ele>
        <time>2023-01-09T09:01:00Z</time>
      </trkpt>
      <trkpt lat="45.18564" lon="-0.58056">
        <ele>25</ele>
        <time>2023-01-09T09:01:20Z</time>
      </trkpt>
      <trkpt lat="45.18587" lon="-0.58049">
        <ele>25</ele>
        <time>2023-01-09T09:01:39Z</time>
      </trkpt>
      <trkpt lat="45.1859" lon="-0.58067">
        <ele>25</ele>
        <time>2023-01-09T09:01:49Z</time>
      </trkpt>
    </trkseg>
  </trk>
</gpx>